Time;durP1;ratioP1;P1;durP2;ratioP2;P2;SDS_P1;SDS_P2;PMS_P1;PMS_P2;Temp;Humidity;BMP_temperature;BMP_pressure;BME280_temperature;BME280_humidity;BME280_pressure;Samples;Min_cycle;Max_cycle;Signal;HPM_P1;HPM_P2
2021/07/22 00:02:13;;;;;;;22.10;12.45;;;;;;;;;;4346750;32;20592;-83
2021/07/22 00:04:39;;;;;;;20.98;12.02;;;;;;;;;;4346420;33;20153;-83
2021/07/22 00:07:04;;;;;;;22.35;12.95;;;;;;;;;;4345978;32;20232;-82
2021/07/22 00:09:30;;;;;;;21.85;12.95;;;;;;;;;;4359864;33;20158;-83
2021/07/22 00:11:55;;;;;;;22.77;12.35;;;;;;;;;;4359823;32;20131;-84
2021/07/22 00:14:38;;;;;;;;;;;;;;;;;;;;;
2021/07/22 00:17:13;;;;;;;23.10;12.35;;;;;;;;;;4360153;33;20152;-84
2021/07/22 00:19:38;;;;;;;20.55;12.30;;;;;;;;;;4346084;32;20264;-83
2021/07/22 00:22:04;;;;;;;22.20;12.02;;;;;;;;;;4358889;33;20540;-83
2021/07/22 00:24:38;;;;;;;22.20;12.23;;;;;;;;;;4345157;33;20178;-83
2021/07/22 00:27:06;;;;;;;21.75;12.30;;;;;;;;;;4344746;33;20162;-83
2021/07/22 00:29:35;;;;;;;22.40;12.57;;;;;;;;;;4344440;32;20163;-83
2021/07/22 00:32:24;;;;;;;21.92;12.35;;;;;;;;;;4344636;33;20269;-83
2021/07/22 00:34:50;;;;;;;22.70;13.30;;;;;;;;;;4346856;33;20221;-84
2021/07/22 00:37:18;;;;;;;23.48;12.05;;;;;;;;;;4345012;33;20163;-85
2021/07/22 00:39:43;;;;;;;22.25;12.93;;;;;;;;;;4358651;32;20147;-83
2021/07/22 00:42:12;;;;;;;21.10;12.13;;;;;;;;;;4345309;32;20634;-84
2021/07/22 00:44:40;;;;;;;24.77;12.98;;;;;;;;;;4344084;32;20282;-85
2021/07/22 00:47:09;;;;;;;19.00;11.85;;;;;;;;;;4345101;33;20170;-84
2021/07/22 00:49:50;;;;;;;22.60;13.20;;;;;;;;;;4358916;32;20147;-83
2021/07/22 00:52:16;;;;;;;20.70;12.52;;;;;;;;;;4347409;32;20202;-84
2021/07/22 00:54:54;;;;;;;21.90;12.50;;;;;;;;;;4346851;33;20634;-83
2021/07/22 00:57:19;;;;;;;20.88;12.60;;;;;;;;;;4344141;32;20209;-83
2021/07/22 00:59:44;;;;;;;24.05;12.95;;;;;;;;;;4344302;32;20653;-83
2021/07/22 01:02:10;;;;;;;23.02;13.05;;;;;;;;;;4344317;32;20168;-84
2021/07/22 01:04:35;;;;;;;26.33;14.57;;;;;;;;;;4345021;33;20185;-83
2021/07/22 01:07:00;;;;;;;21.85;13.20;;;;;;;;;;4344615;33;20167;-84
2021/07/22 01:09:25;;;;;;;23.35;13.30;;;;;;;;;;4344623;33;20194;-83
2021/07/22 01:11:53;;;;;;;24.90;14.00;;;;;;;;;;4344243;33;20619;-83
2021/07/22 01:14:19;;;;;;;23.73;13.95;;;;;;;;;;4345355;33;20572;-83
2021/07/22 01:16:44;;;;;;;25.35;14.18;;;;;;;;;;4344124;32;20194;-83
2021/07/22 01:19:12;;;;;;;26.60;14.70;;;;;;;;;;4344381;32;20222;-83
2021/07/22 01:21:47;;;;;;;26.90;14.45;;;;;;;;;;4345595;32;20622;-83
2021/07/22 01:24:37;;;;;;;25.50;14.32;;;;;;;;;;4360714;32;20166;-83
2021/07/22 01:27:06;;;;;;;24.98;14.20;;;;;;;;;;4362543;32;20476;-83
2021/07/22 01:29:31;;;;;;;25.75;15.25;;;;;;;;;;4346934;33;20528;-83
2021/07/22 01:32:04;;;;;;;24.63;15.35;;;;;;;;;;4346595;32;20194;-83
2021/07/22 01:34:32;;;;;;;31.15;16.55;;;;;;;;;;4346389;32;20159;-83
2021/07/22 01:36:58;;;;;;;27.40;15.00;;;;;;;;;;4346267;32;20174;-83
2021/07/22 01:39:23;;;;;;;30.05;15.82;;;;;;;;;;4346229;33;20527;-83
2021/07/22 01:41:48;;;;;;;27.05;16.73;;;;;;;;;;4360375;33;20536;-83
2021/07/22 01:44:16;;;;;;;27.75;16.12;;;;;;;;;;4346462;33;20656;-83
2021/07/22 01:46:41;;;;;;;31.17;17.37;;;;;;;;;;4346644;32;20596;-83
2021/07/22 01:49:31;;;;;;;29.33;16.35;;;;;;;;;;4346121;32;20214;-83
2021/07/22 01:51:55;;;;;;;28.48;17.10;;;;;;;;;;4359859;32;20163;-83
2021/07/22 01:57:20;;;;;;;31.05;18.05;;;;;;;;;;4410957;32;20554;-83
2021/07/22 01:59:49;;;;;;;34.28;18.83;;;;;;;;;;4408349;32;20506;-83
2021/07/22 02:02:17;;;;;;;36.67;19.83;;;;;;;;;;4408170;32;20158;-83
2021/07/22 02:04:44;;;;;;;32.45;18.50;;;;;;;;;;4408548;32;20161;-83
2021/07/22 02:07:19;;;;;;;39.10;20.95;;;;;;;;;;4408404;32;20559;-83
2021/07/22 02:09:47;;;;;;;41.80;22.02;;;;;;;;;;4408263;32;20226;-83
2021/07/22 02:12:12;;;;;;;35.15;19.83;;;;;;;;;;4408146;32;20497;-83
2021/07/22 02:14:39;;;;;;;33.22;20.30;;;;;;;;;;4408649;32;20162;-83
2021/07/22 02:17:07;;;;;;;34.92;19.45;;;;;;;;;;4408338;32;20166;-83
2021/07/22 02:19:41;;;;;;;37.67;19.75;;;;;;;;;;4408227;32;20211;-83
2021/07/22 02:22:30;;;;;;;35.20;20.23;;;;;;;;;;4408471;32;20241;-83
2021/07/22 02:24:55;;;;;;;34.00;18.62;;;;;;;;;;4394662;32;20159;-83
2021/07/22 02:27:21;;;;;;;35.10;20.02;;;;;;;;;;4409224;32;20446;-83
2021/07/22 02:30:14;;;;;;;34.70;18.62;;;;;;;;;;4407700;32;20177;-82
2021/07/22 02:32:39;;;;;;;33.50;19.00;;;;;;;;;;4408133;32;20196;-84
2021/07/22 02:35:05;;;;;;;32.60;18.40;;;;;;;;;;4408014;32;20590;-84
2021/07/22 02:44:02;;;;;;;34.70;19.08;;;;;;;;;;4367981;32;20242;-84
2021/07/22 02:46:55;;;;;;;;;;;;;;;;;;;;;
2021/07/22 02:49:49;;;;;;;30.42;18.30;;;;;;;;;;4373814;32;20604;-84
2021/07/22 02:52:18;;;;;;;35.45;19.35;;;;;;;;;;4371268;32;20672;-84
2021/07/22 02:55:27;;;;;;;;;;;;;;;;;;;;;
2021/07/22 02:58:23;;;;;;;31.80;18.40;;;;;;;;;;4357037;32;20196;-84
2021/07/22 03:00:48;;;;;;;30.08;18.45;;;;;;;;;;4374484;32;20166;-84
2021/07/22 03:03:28;;;;;;;30.42;17.90;;;;;;;;;;4375954;32;20166;-85
2021/07/22 03:05:53;;;;;;;33.45;19.00;;;;;;;;;;4334905;32;20506;-84
2021/07/22 03:08:37;;;;;;;;;;;;;;;;;;;;;
2021/07/22 03:11:07;;;;;;;29.15;18.37;;;;;;;;;;4329629;33;20136;-84
2021/07/22 03:13:40;;;;;;;31.95;17.35;;;;;;;;;;4315745;33;20155;-83
2021/07/22 03:16:06;;;;;;;31.98;17.45;;;;;;;;;;4315737;33;20581;-83
2021/07/22 03:34:18;;;;;;;28.00;16.05;;;;;;;;;;4353317;32;20145;-83
2021/07/22 03:36:37;;;;;;;24.92;16.33;;;;;;;;;;4326134;33;20507;-83
2021/07/22 03:39:22;;;;;;;27.52;16.12;;;;;;;;;;4315594;33;20578;-83
2021/07/22 03:42:31;;;;;;;;;;;;;;;;;;;;;
2021/07/22 03:44:59;;;;;;;24.58;15.15;;;;;;;;;;4324722;32;20206;-83
2021/07/22 03:47:24;;;;;;;28.12;16.65;;;;;;;;;;4315635;33;20156;-83
2021/07/22 03:49:53;;;;;;;26.25;15.13;;;;;;;;;;4327443;33;20230;-83
2021/07/22 04:04:59;;;;;;;28.20;15.63;;;;;;;;;;4318095;33;20209;-83
2021/07/22 04:10:30;;;;;;;24.23;15.07;;;;;;;;;;4328952;33;20327;-84
2021/07/22 04:13:31;;;;;;;23.77;14.27;;;;;;;;;;4372356;32;20162;-84
2021/07/22 04:16:03;;;;;;;19.52;13.07;;;;;;;;;;4343426;33;20202;-84
2021/07/22 04:18:37;;;;;;;21.87;14.27;;;;;;;;;;4323806;33;20171;-84
2021/07/22 04:21:23;;;;;;;20.37;13.23;;;;;;;;;;4330004;32;20156;-84
2021/07/22 04:24:01;;;;;;;22.65;13.88;;;;;;;;;;4332573;32;20226;-84
2021/07/22 04:26:27;;;;;;;22.77;14.93;;;;;;;;;;4332850;32;20496;-84
2021/07/22 04:28:55;;;;;;;21.00;13.40;;;;;;;;;;4332775;33;20186;-84
2021/07/22 04:31:20;;;;;;;22.37;12.75;;;;;;;;;;4412846;32;20157;-83
2021/07/22 04:33:53;;;;;;;18.20;11.98;;;;;;;;;;4424947;32;20233;-83
2021/07/22 04:36:45;;;;;;;22.02;13.68;;;;;;;;;;4425130;32;20220;-84
2021/07/22 04:39:46;;;;;;;20.88;13.75;;;;;;;;;;4376163;32;20154;-84
2021/07/22 04:49:00;;;;;;;19.65;12.52;;;;;;;;;;4330990;33;20592;-83
2021/07/22 04:51:53;;;;;;;20.17;12.18;;;;;;;;;;4319246;33;20194;-83
2021/07/22 04:54:49;;;;;;;16.92;11.73;;;;;;;;;;4339872;33;20258;-82
2021/07/22 04:57:30;;;;;;;20.08;12.18;;;;;;;;;;4410058;32;20170;-82
2021/07/22 05:00:08;;;;;;;;;;;;;;;;;;;;;
2021/07/22 05:03:00;;;;;;;;;;;;;;;;;;;;;
2021/07/22 05:05:44;;;;;;;23.35;12.48;;;;;;;;;;4418407;32;20158;-84
2021/07/22 05:33:18;;;;;;;19.92;12.23;;;;;;;;;;4300978;33;20179;-83
2021/07/22 05:39:30;;;;;;;21.02;11.93;;;;;;;;;;4282944;33;20230;-83
2021/07/22 05:41:55;;;;;;;18.85;11.30;;;;;;;;;;4334062;32;20167;-84
2021/07/22 05:44:39;;;;;;;20.98;12.18;;;;;;;;;;4358653;32;20198;-83
2021/07/22 05:47:07;;;;;;;18.85;12.82;;;;;;;;;;4316342;32;20264;-83
2021/07/22 05:49:32;;;;;;;18.27;12.30;;;;;;;;;;4328761;33;20197;-82
2021/07/22 05:55:35;;;;;;;45.10;13.88;;;;;;;;;;4344905;32;20257;-82
2021/07/22 06:01:27;;;;;;;;;;;;;;;;;;;;;
2021/07/22 06:04:35;;;;;;;20.15;12.95;;;;;;;;;;4375005;32;20561;-83
2021/07/22 06:07:11;;;;;;;22.83;13.18;;;;;;;;;;4294710;33;20245;-84
2021/07/22 06:09:46;;;;;;;19.95;12.50;;;;;;;;;;4328045;33;20228;-84
2021/07/22 06:12:21;;;;;;;21.70;13.15;;;;;;;;;;4328453;33;20174;-84
2021/07/22 06:14:48;;;;;;;20.95;12.93;;;;;;;;;;4375128;32;20190;-84
2021/07/22 06:17:13;;;;;;;24.05;13.82;;;;;;;;;;4388326;32;20174;-83
2021/07/22 06:19:39;;;;;;;20.20;12.73;;;;;;;;;;4340966;32;20206;-84
2021/07/22 06:22:04;;;;;;;22.55;13.80;;;;;;;;;;4312889;33;20220;-83
2021/07/22 06:24:32;;;;;;;23.75;13.88;;;;;;;;;;4313451;33;20172;-83
2021/07/22 06:27:10;;;;;;;21.42;13.40;;;;;;;;;;4314053;32;20207;-83
2021/07/22 06:29:35;;;;;;;24.17;14.70;;;;;;;;;;4376870;32;20171;-82
2021/07/22 06:35:12;;;;;;;21.52;14.00;;;;;;;;;;4384808;32;20154;-83
2021/07/22 06:37:44;;;;;;;18.85;12.73;;;;;;;;;;4351677;32;20207;-81
2021/07/22 06:40:12;;;;;;;23.33;14.52;;;;;;;;;;4326985;32;20540;-82
2021/07/22 06:42:41;;;;;;;25.45;14.10;;;;;;;;;;4322086;32;20215;-82
2021/07/22 06:45:07;;;;;;;23.00;14.63;;;;;;;;;;4315463;33;20230;-82
2021/07/22 06:47:35;;;;;;;23.62;14.20;;;;;;;;;;4327953;32;20183;-82
2021/07/22 06:50:20;;;;;;;23.17;14.90;;;;;;;;;;4327703;33;20159;-82
2021/07/22 06:52:59;;;;;;;21.42;13.30;;;;;;;;;;4392506;32;20242;-81
2021/07/22 06:55:27;;;;;;;22.23;14.27;;;;;;;;;;4392567;32;20155;-82
2021/07/22 06:57:55;;;;;;;23.00;14.35;;;;;;;;;;4327752;32;20179;-82
2021/07/22 07:00:34;;;;;;;18.70;12.48;;;;;;;;;;4328267;32;20152;-82
2021/07/22 07:05:55;;;;;;;19.12;12.05;;;;;;;;;;4329384;32;20647;-82
2021/07/22 07:08:24;;;;;;;21.87;12.65;;;;;;;;;;4327758;32;20160;-81
2021/07/22 07:10:49;;;;;;;18.75;11.32;;;;;;;;;;4333293;32;20496;-84
2021/07/22 07:13:14;;;;;;;19.12;11.95;;;;;;;;;;4330829;32;20175;-81
2021/07/22 07:15:42;;;;;;;20.20;11.33;;;;;;;;;;4330258;32;20198;-82
2021/07/22 07:18:58;;;;;;;;;;;;;;;;;;;;;
2021/07/22 07:21:25;;;;;;;18.62;11.98;;;;;;;;;;4347021;32;20228;-81
2021/07/22 07:24:09;;;;;;;14.75;10.70;;;;;;;;;;4331045;32;20205;-82
2021/07/22 07:26:55;;;;;;;16.85;12.02;;;;;;;;;;4330152;33;20178;-82
2021/07/22 07:32:14;;;;;;;18.35;11.45;;;;;;;;;;4344073;32;20155;-82
2021/07/22 07:34:39;;;;;;;17.98;10.63;;;;;;;;;;4344211;32;20181;-82
2021/07/22 07:37:05;;;;;;;13.82;9.55;;;;;;;;;;4331685;32;20231;-82
2021/07/22 07:39:38;;;;;;;17.35;10.32;;;;;;;;;;4329921;32;20160;-82
2021/07/22 07:42:03;;;;;;;13.23;9.75;;;;;;;;;;4319234;32;20155;-84
2021/07/22 07:44:32;;;;;;;13.70;9.73;;;;;;;;;;4334927;32;20220;-85
2021/07/22 07:50:26;;;;;;;13.57;9.98;;;;;;;;;;4358633;32;20158;-83
2021/07/22 07:53:12;;;;;;;13.60;8.45;;;;;;;;;;4358845;32;20178;-83
2021/07/22 07:55:40;;;;;;;12.07;8.30;;;;;;;;;;4273809;33;20176;-83
2021/07/22 07:58:05;;;;;;;11.12;7.87;;;;;;;;;;4287448;33;20177;-84
2021/07/22 08:00:42;;;;;;;12.70;8.80;;;;;;;;;;4296243;33;20184;-82
2021/07/22 08:03:18;;;;;;;12.90;7.95;;;;;;;;;;4296062;32;20204;-82
2021/07/22 08:05:50;;;;;;;13.43;8.75;;;;;;;;;;4381450;32;20185;-83
2021/07/22 08:08:24;;;;;;;11.00;7.75;;;;;;;;;;4367978;32;20183;-83
2021/07/22 08:11:00;;;;;;;14.82;8.10;;;;;;;;;;4381592;32;20171;-80
2021/07/22 08:13:40;;;;;;;;;;;;;;;;;;;;;
2021/07/22 08:16:06;;;;;;;12.27;8.27;;;;;;;;;;4353672;33;20278;-84
2021/07/22 08:18:32;;;;;;;11.38;8.20;;;;;;;;;;4342702;33;20179;-85
2021/07/22 08:20:57;;;;;;;8.85;6.72;;;;;;;;;;4332077;32;20232;-82
2021/07/22 08:23:27;;;;;;;10.75;7.53;;;;;;;;;;4341881;32;20151;-82
2021/07/22 08:26:21;;;;;;;;;;;;;;;;;;;;;
2021/07/22 08:28:50;;;;;;;10.35;6.90;;;;;;;;;;4343508;33;20166;-82
2021/07/22 08:31:40;;;;;;;9.60;6.68;;;;;;;;;;4393764;32;20209;-84
2021/07/22 08:34:06;;;;;;;12.98;8.23;;;;;;;;;;4393785;32;20194;-83
2021/07/22 08:36:53;;;;;;;10.05;7.75;;;;;;;;;;4393524;32;20193;-82
2021/07/22 08:39:46;;;;;;;10.25;7.57;;;;;;;;;;4358920;32;20623;-83
2021/07/22 08:43:03;;;;;;;10.48;7.82;;;;;;;;;;4393578;32;20215;-82
2021/07/22 08:48:48;;;;;;;12.85;8.30;;;;;;;;;;4343402;33;20612;-84
2021/07/22 08:51:37;;;;;;;13.05;8.77;;;;;;;;;;4384566;32;20170;-78
2021/07/22 08:57:31;;;;;;;11.45;7.50;;;;;;;;;;4347561;32;20163;-81
2021/07/22 09:03:10;;;;;;;10.88;8.05;;;;;;;;;;4357809;33;20167;-82
2021/07/22 09:08:51;;;;;;;9.95;7.62;;;;;;;;;;4387863;32;20323;-78
2021/07/22 09:11:23;;;;;;;12.57;7.87;;;;;;;;;;4376030;32;20158;-84
2021/07/22 09:24:23;;;;;;;10.30;6.75;;;;;;;;;;4328544;33;20182;-81
2021/07/22 09:27:25;;;;;;;9.05;6.00;;;;;;;;;;4328504;33;20237;-83
2021/07/22 09:33:36;;;;;;;10.32;6.32;;;;;;;;;;4344924;33;20185;-83
2021/07/22 09:39:34;;;;;;;;;;;;;;;;;;;;;
2021/07/22 09:45:30;;;;;;;;;;;;;;;;;;;;;
2021/07/22 09:51:10;;;;;;;8.18;5.90;;;;;;;;;;4362496;32;20186;-82
2021/07/22 09:54:04;;;;;;;8.75;6.10;;;;;;;;;;4374277;32;20167;-85
2021/07/22 09:56:55;;;;;;;9.57;6.22;;;;;;;;;;4392198;32;20196;-83
2021/07/22 10:02:54;;;;;;;10.93;7.32;;;;;;;;;;4362490;33;20186;-82
2021/07/22 10:05:21;;;;;;;10.18;6.20;;;;;;;;;;4345993;32;20255;-82
2021/07/22 10:08:07;;;;;;;7.97;5.95;;;;;;;;;;4347646;33;20226;-86
2021/07/22 10:10:36;;;;;;;9.82;6.43;;;;;;;;;;4348710;32;20229;-84
2021/07/22 10:13:35;;;;;;;;;;;;;;;;;;;;;
2021/07/22 10:16:26;;;;;;;11.27;6.10;;;;;;;;;;4356457;33;20202;-84
2021/07/22 10:19:04;;;;;;;8.88;6.05;;;;;;;;;;4347750;33;20194;-84
2021/07/22 10:22:06;;;;;;;8.40;6.22;;;;;;;;;;4347513;32;20215;-86
2021/07/22 10:24:51;;;;;;;;;;;;;;;;;;;;;
2021/07/22 10:27:26;;;;;;;9.45;6.03;;;;;;;;;;4345882;33;20155;-84
2021/07/22 10:29:57;;;;;;;13.40;6.03;;;;;;;;;;4346200;32;20162;-85
2021/07/22 10:32:35;;;;;;;8.45;6.35;;;;;;;;;;4344858;32;20212;-84
2021/07/22 10:35:03;;;;;;;8.65;5.20;;;;;;;;;;4350046;32;20167;-84
2021/07/22 10:37:43;;;;;;;7.25;5.22;;;;;;;;;;4343836;32;20171;-84
2021/07/22 10:40:31;;;;;;;8.60;5.22;;;;;;;;;;4345870;33;20182;-83
2021/07/22 10:43:19;;;;;;;6.80;4.65;;;;;;;;;;4345636;33;20218;-82
2021/07/22 10:52:16;;;;;;;7.22;5.40;;;;;;;;;;4374228;32;20148;-83
2021/07/22 10:55:29;;;;;;;6.53;4.45;;;;;;;;;;4347332;32;20167;-83
2021/07/22 10:57:55;;;;;;;7.85;5.28;;;;;;;;;;4340906;32;20244;-82
2021/07/22 11:00:41;;;;;;;9.10;4.70;;;;;;;;;;4331320;33;20612;-84
2021/07/22 11:06:35;;;;;;;8.38;4.80;;;;;;;;;;4283810;33;20175;-83
2021/07/22 11:09:10;;;;;;;7.30;4.22;;;;;;;;;;4271724;33;20187;-82
2021/07/22 11:11:54;;;;;;;9.65;4.47;;;;;;;;;;4271386;33;20164;-83
2021/07/22 11:14:35;;;;;;;7.75;4.55;;;;;;;;;;4271144;33;20178;-83
2021/07/22 11:17:01;;;;;;;6.50;4.60;;;;;;;;;;4300174;33;20155;-82
2021/07/22 11:19:35;;;;;;;7.78;5.57;;;;;;;;;;4342773;33;20198;-83
2021/07/22 11:22:04;;;;;;;8.13;5.57;;;;;;;;;;4344247;33;20131;-83
2021/07/22 11:24:34;;;;;;;8.05;5.28;;;;;;;;;;4343308;33;20139;-82
2021/07/22 11:30:19;;;;;;;7.85;5.43;;;;;;;;;;4283729;33;20153;-83
2021/07/22 11:32:47;;;;;;;8.02;5.28;;;;;;;;;;4340871;33;20139;-83
2021/07/22 11:35:24;;;;;;;8.45;5.47;;;;;;;;;;4341589;33;20173;-83
2021/07/22 11:38:40;;;;;;;6.28;4.90;;;;;;;;;;4342326;33;20155;-83
2021/07/22 11:40:40;;;;;;;6.72;4.90;;;;;;;;;;4348806;32;20183;-82
2021/07/22 11:43:05;;;;;;;6.57;4.47;;;;;;;;;;4343361;33;20154;-84
2021/07/22 11:46:25;;;;;;;;;;;;;;;;;;;;;
2021/07/22 11:51:57;;;;;;;7.70;5.35;;;;;;;;;;4343295;33;20239;-83
2021/07/22 11:54:22;;;;;;;6.07;5.03;;;;;;;;;;4342056;33;20178;-83
2021/07/22 11:57:27;;;;;;;8.93;5.20;;;;;;;;;;4342544;33;20602;-84
2021/07/22 12:00:24;;;;;;;9.20;5.97;;;;;;;;;;4402667;32;20169;-82
2021/07/22 12:03:04;;;;;;;8.57;5.00;;;;;;;;;;4398578;32;20158;-82
2021/07/22 12:05:46;;;;;;;6.18;5.18;;;;;;;;;;4403961;32;20603;-83
2021/07/22 12:08:26;;;;;;;10.77;6.40;;;;;;;;;;4407273;32;20229;-82
2021/07/22 12:11:04;;;;;;;9.23;5.97;;;;;;;;;;4402157;32;20164;-82
2021/07/22 12:13:51;;;;;;;10.98;5.70;;;;;;;;;;4400436;32;20230;-81
2021/07/22 12:16:24;;;;;;;7.35;5.72;;;;;;;;;;4390853;32;20153;-82
2021/07/22 12:19:09;;;;;;;9.68;5.40;;;;;;;;;;4393328;32;20182;-81
2021/07/22 12:21:35;;;;;;;6.65;5.10;;;;;;;;;;4398471;32;20642;-81
2021/07/22 12:24:19;;;;;;;6.28;5.03;;;;;;;;;;4406396;32;20158;-82
2021/07/22 12:26:48;;;;;;;6.75;4.93;;;;;;;;;;4406361;32;20149;-83
2021/07/22 12:29:17;;;;;;;10.20;5.37;;;;;;;;;;4406310;32;20609;-83
2021/07/22 12:32:09;;;;;;;7.37;5.10;;;;;;;;;;4420968;32;20198;-82
2021/07/22 12:34:48;;;;;;;6.53;5.03;;;;;;;;;;4406496;32;20164;-81
2021/07/22 12:37:22;;;;;;;7.30;5.03;;;;;;;;;;4405773;32;20166;-82
2021/07/22 12:39:50;;;;;;;8.73;5.70;;;;;;;;;;4406589;32;20149;-82
2021/07/22 12:42:15;;;;;;;6.70;4.45;;;;;;;;;;4393689;32;20218;-83
2021/07/22 12:44:51;;;;;;;8.20;4.60;;;;;;;;;;4419567;32;20317;-84
2021/07/22 12:47:37;;;;;;;5.93;4.82;;;;;;;;;;4414875;32;20486;-83
2021/07/22 12:50:03;;;;;;;6.20;4.95;;;;;;;;;;4409573;32;20149;-84
2021/07/22 12:52:33;;;;;;;7.68;5.55;;;;;;;;;;4417623;32;20173;-82
2021/07/22 12:55:06;;;;;;;5.70;4.65;;;;;;;;;;4406087;32;20591;-82
2021/07/22 12:57:35;;;;;;;7.65;5.32;;;;;;;;;;4406629;32;20150;-83
2021/07/22 13:00:20;;;;;;;6.65;4.82;;;;;;;;;;4358484;32;20155;-83
2021/07/22 13:03:05;;;;;;;5.50;4.45;;;;;;;;;;4346766;33;20500;-82
2021/07/22 13:05:30;;;;;;;7.75;4.85;;;;;;;;;;4380218;32;20161;-82
2021/07/22 13:07:55;;;;;;;8.15;5.50;;;;;;;;;;4409437;32;20203;-83
2021/07/22 13:10:23;;;;;;;9.32;5.22;;;;;;;;;;4409169;32;20445;-83
2021/07/22 13:12:48;;;;;;;7.12;4.93;;;;;;;;;;4408705;32;20545;-82
2021/07/22 13:15:45;;;;;;;6.50;4.47;;;;;;;;;;4376458;32;20159;-83
2021/07/22 13:18:16;;;;;;;7.75;5.40;;;;;;;;;;4346232;33;20189;-83
2021/07/22 13:21:01;;;;;;;;;;;;;;;;;;;;;
2021/07/22 13:23:33;;;;;;;8.60;4.97;;;;;;;;;;4360630;33;20135;-84
2021/07/22 13:26:01;;;;;;;7.22;4.40;;;;;;;;;;4346879;33;20195;-83
2021/07/22 13:28:29;;;;;;;7.72;4.80;;;;;;;;;;4345975;33;20179;-81
2021/07/22 13:30:55;;;;;;;8.75;5.10;;;;;;;;;;4345947;33;20222;-83
2021/07/22 13:33:23;;;;;;;7.15;5.55;;;;;;;;;;4359951;33;20146;-83
2021/07/22 13:35:48;;;;;;;6.75;4.72;;;;;;;;;;4346249;33;20653;-83
2021/07/22 13:38:14;;;;;;;9.45;5.25;;;;;;;;;;4360720;32;20162;-83
2021/07/22 13:40:40;;;;;;;8.07;5.30;;;;;;;;;;4422193;32;20138;-83
2021/07/22 13:43:06;;;;;;;8.55;4.70;;;;;;;;;;4408506;32;20158;-82
2021/07/22 13:45:31;;;;;;;7.32;4.53;;;;;;;;;;4408137;32;20188;-83
2021/07/22 13:47:58;;;;;;;8.05;4.30;;;;;;;;;;4408676;32;20162;-84
2021/07/22 13:50:26;;;;;;;6.37;4.82;;;;;;;;;;4422049;32;20142;-82
2021/07/22 13:52:58;;;;;;;7.05;4.70;;;;;;;;;;4352263;32;20163;-83
2021/07/22 13:55:23;;;;;;;5.68;4.25;;;;;;;;;;4338070;32;20155;-82
2021/07/22 13:57:49;;;;;;;8.68;4.40;;;;;;;;;;4338760;32;20608;-83
2021/07/22 14:00:14;;;;;;;5.75;4.68;;;;;;;;;;4345800;32;20523;-83
2021/07/22 14:02:39;;;;;;;6.85;4.78;;;;;;;;;;4334057;32;20600;-83
2021/07/22 14:05:14;;;;;;;8.52;4.47;;;;;;;;;;4345764;32;20669;-83
2021/07/22 14:07:40;;;;;;;8.00;4.47;;;;;;;;;;4331097;32;20159;-82
2021/07/22 14:10:05;;;;;;;5.90;4.20;;;;;;;;;;4331939;33;20204;-84
2021/07/22 14:12:30;;;;;;;6.65;4.20;;;;;;;;;;4330787;33;20182;-82
2021/07/22 14:14:56;;;;;;;7.43;4.53;;;;;;;;;;4331638;33;20235;-83
2021/07/22 14:17:21;;;;;;;5.70;4.20;;;;;;;;;;4331445;33;20160;-84
2021/07/22 14:19:46;;;;;;;9.00;4.32;;;;;;;;;;4330894;33;20185;-84
2021/07/22 14:22:21;;;;;;;8.38;4.32;;;;;;;;;;4331049;33;20213;-82
2021/07/22 14:24:46;;;;;;;6.60;4.00;;;;;;;;;;4331098;33;20215;-82
2021/07/22 14:27:12;;;;;;;6.15;4.53;;;;;;;;;;4331230;33;20510;-81
2021/07/22 14:29:37;;;;;;;6.68;4.43;;;;;;;;;;4330702;33;20522;-83
2021/07/22 14:32:02;;;;;;;6.95;4.85;;;;;;;;;;4330615;33;20236;-83
2021/07/22 14:34:29;;;;;;;6.15;4.15;;;;;;;;;;4344519;33;20253;-81
2021/07/22 14:36:55;;;;;;;6.10;3.80;;;;;;;;;;4330816;33;20171;-82
2021/07/22 14:39:20;;;;;;;5.68;3.85;;;;;;;;;;4330520;33;20178;-83
2021/07/22 14:41:45;;;;;;;7.57;3.87;;;;;;;;;;4330580;33;20167;-84
2021/07/22 14:44:13;;;;;;;5.87;3.50;;;;;;;;;;4330434;33;20286;-83
2021/07/22 14:46:41;;;;;;;5.20;3.30;;;;;;;;;;4336326;32;20195;-83
2021/07/22 14:49:08;;;;;;;5.07;3.75;;;;;;;;;;4345265;32;20645;-83
2021/07/22 14:51:36;;;;;;;3.87;3.30;;;;;;;;;;4345503;33;20170;-83
2021/07/22 14:54:01;;;;;;;7.87;4.10;;;;;;;;;;4345471;33;20159;-83
2021/07/22 14:56:26;;;;;;;4.45;3.08;;;;;;;;;;4345087;33;20194;-81
2021/07/22 14:58:52;;;;;;;7.20;3.95;;;;;;;;;;4344686;33;20595;-81
2021/07/22 15:01:17;;;;;;;7.90;3.78;;;;;;;;;;4345439;32;20526;-80
2021/07/22 15:03:42;;;;;;;4.82;3.92;;;;;;;;;;4345215;32;20171;-81
2021/07/22 15:06:08;;;;;;;5.85;3.58;;;;;;;;;;4345099;32;20236;-80
2021/07/22 15:08:34;;;;;;;6.65;3.90;;;;;;;;;;4344335;32;20159;-79
2021/07/22 15:11:01;;;;;;;6.12;3.65;;;;;;;;;;4344849;32;20204;-81
2021/07/22 15:13:26;;;;;;;5.65;3.97;;;;;;;;;;4345635;32;20492;-75
2021/07/22 15:15:52;;;;;;;5.00;3.75;;;;;;;;;;4344915;32;20167;-80
2021/07/22 15:18:20;;;;;;;7.70;4.40;;;;;;;;;;4345115;32;20541;-79
2021/07/22 15:20:45;;;;;;;8.82;3.92;;;;;;;;;;4345242;33;20170;-80
2021/07/22 15:23:10;;;;;;;8.23;3.90;;;;;;;;;;4345192;32;20521;-80
2021/07/22 15:25:36;;;;;;;5.40;3.45;;;;;;;;;;4344775;33;20600;-80
2021/07/22 15:28:01;;;;;;;6.80;4.00;;;;;;;;;;4336908;33;20182;-81
2021/07/22 15:30:26;;;;;;;6.22;3.87;;;;;;;;;;4344409;33;20238;-80
2021/07/22 15:32:53;;;;;;;6.55;3.75;;;;;;;;;;4345294;33;20581;-80
2021/07/22 15:35:18;;;;;;;7.30;3.90;;;;;;;;;;4344638;32;20619;-82
2021/07/22 15:37:45;;;;;;;5.82;3.58;;;;;;;;;;4345932;33;20216;-82
2021/07/22 15:40:11;;;;;;;6.32;4.20;;;;;;;;;;4344762;33;20190;-80
2021/07/22 15:42:36;;;;;;;8.95;4.18;;;;;;;;;;4345338;32;20164;-79
2021/07/22 15:45:01;;;;;;;7.20;3.50;;;;;;;;;;4344996;33;20163;-80
2021/07/22 15:47:27;;;;;;;5.90;3.58;;;;;;;;;;4344865;32;20660;-82
2021/07/22 15:49:53;;;;;;;6.30;3.85;;;;;;;;;;4344673;32;20186;-80
2021/07/22 15:52:18;;;;;;;7.57;3.35;;;;;;;;;;4344352;32;20217;-81
2021/07/22 15:54:44;;;;;;;5.05;3.30;;;;;;;;;;4358148;33;20560;-81
2021/07/22 15:57:11;;;;;;;6.72;3.62;;;;;;;;;;4332631;32;20213;-81
2021/07/22 15:59:37;;;;;;;5.55;3.62;;;;;;;;;;4384732;32;20174;-81
2021/07/22 16:02:07;;;;;;;4.90;3.40;;;;;;;;;;4420024;32;20174;-82
2021/07/22 16:04:35;;;;;;;4.43;3.10;;;;;;;;;;4405324;32;20154;-80
2021/07/22 16:07:04;;;;;;;4.75;3.20;;;;;;;;;;4384213;32;20158;-80
2021/07/22 16:09:29;;;;;;;5.82;3.22;;;;;;;;;;4399052;32;20166;-80
2021/07/22 16:11:55;;;;;;;5.85;3.78;;;;;;;;;;4392917;32;20188;-81
2021/07/22 16:14:20;;;;;;;4.50;3.50;;;;;;;;;;4418083;32;20145;-81
2021/07/22 16:16:45;;;;;;;5.55;3.47;;;;;;;;;;4415043;32;20173;-81
2021/07/22 16:19:11;;;;;;;4.90;3.75;;;;;;;;;;4403824;32;20162;-82
2021/07/22 16:21:36;;;;;;;7.75;3.58;;;;;;;;;;4408532;32;20217;-81
2021/07/22 16:24:01;;;;;;;6.78;3.35;;;;;;;;;;4422185;32;20647;-81
2021/07/22 16:26:27;;;;;;;5.75;3.42;;;;;;;;;;4409533;32;20166;-82
2021/07/22 16:28:52;;;;;;;5.82;3.30;;;;;;;;;;4409297;32;20551;-82
2021/07/22 16:31:17;;;;;;;4.75;3.33;;;;;;;;;;4404551;32;20258;-82
2021/07/22 16:33:43;;;;;;;5.55;3.30;;;;;;;;;;4423350;32;20157;-80
2021/07/22 16:36:08;;;;;;;6.20;3.30;;;;;;;;;;4403120;32;20205;-82
2021/07/22 16:38:34;;;;;;;5.50;3.20;;;;;;;;;;4413943;32;20182;-82
2021/07/22 16:40:59;;;;;;;8.70;3.40;;;;;;;;;;4410721;32;20189;-81
2021/07/22 16:43:24;;;;;;;5.45;3.05;;;;;;;;;;4412629;32;20162;-81
2021/07/22 16:45:50;;;;;;;5.03;3.10;;;;;;;;;;4415608;32;20513;-77
2021/07/22 16:48:16;;;;;;;4.22;2.72;;;;;;;;;;4409035;32;20257;-80
2021/07/22 16:50:41;;;;;;;5.05;3.22;;;;;;;;;;4409284;32;20188;-81
2021/07/22 16:53:10;;;;;;;3.05;2.72;;;;;;;;;;4408817;32;20520;-80
2021/07/22 16:55:35;;;;;;;5.65;3.12;;;;;;;;;;4409046;32;20180;-80
2021/07/22 16:58:01;;;;;;;6.60;3.60;;;;;;;;;;4405661;32;20170;-80
2021/07/22 17:00:26;;;;;;;7.22;3.60;;;;;;;;;;4359256;32;20290;-82
2021/07/22 17:02:51;;;;;;;6.82;3.78;;;;;;;;;;4361178;32;20163;-81
2021/07/22 17:05:17;;;;;;;5.28;3.60;;;;;;;;;;4361059;32;20158;-79
2021/07/22 17:07:42;;;;;;;7.90;3.58;;;;;;;;;;4365247;32;20261;-80
2021/07/22 17:10:08;;;;;;;5.40;4.00;;;;;;;;;;4361739;32;20167;-81
2021/07/22 17:12:34;;;;;;;5.20;3.50;;;;;;;;;;4352585;33;20171;-80
2021/07/22 17:14:59;;;;;;;5.37;3.28;;;;;;;;;;4342726;32;20528;-80
2021/07/22 17:17:26;;;;;;;8.57;3.70;;;;;;;;;;4406070;32;20478;-80
2021/07/22 17:19:56;;;;;;;5.07;3.80;;;;;;;;;;4390659;32;20170;-81
2021/07/22 17:22:21;;;;;;;8.43;3.47;;;;;;;;;;4366127;32;20163;-81
2021/07/22 17:24:48;;;;;;;3.80;3.28;;;;;;;;;;4361159;32;20189;-81
2021/07/22 17:27:14;;;;;;;5.93;3.25;;;;;;;;;;4360888;32;20519;-80
2021/07/22 17:29:47;;;;;;;5.10;3.12;;;;;;;;;;4358798;32;20183;-81
2021/07/22 17:32:13;;;;;;;7.93;3.22;;;;;;;;;;4381561;32;20341;-81
2021/07/22 17:34:38;;;;;;;6.15;3.70;;;;;;;;;;4423571;32;20212;-80
2021/07/22 17:37:04;;;;;;;5.87;3.00;;;;;;;;;;4423811;32;20192;-81
2021/07/22 17:39:38;;;;;;;6.43;2.72;;;;;;;;;;4423686;32;20237;-79
2021/07/22 17:42:06;;;;;;;5.22;3.10;;;;;;;;;;4424046;32;20172;-81
2021/07/22 17:44:31;;;;;;;6.70;3.12;;;;;;;;;;4423240;32;20447;-80
2021/07/22 17:46:56;;;;;;;6.15;3.10;;;;;;;;;;4347203;32;20209;-80
2021/07/22 17:49:25;;;;;;;5.55;3.35;;;;;;;;;;4385945;32;20210;-81
2021/07/22 17:51:52;;;;;;;7.28;3.20;;;;;;;;;;4344173;32;20235;-81